sensor_id;sensor_type;location;lat;lon;timestamp;P1;durP1;ratioP1;P2;durP2;ratioP2
38785;SDS011;24535;45.508;12.252;2023-04-06T00:01:41;20.08;;;16.85;;
38785;SDS011;24535;45.508;12.252;2023-04-06T00:04:06;23.20;;;17.40;;
38785;SDS011;24535;45.508;12.252;2023-04-06T00:06:32;20.55;;;16.80;;
38785;SDS011;24535;45.508;12.252;2023-04-06T00:08:59;20.88;;;16.88;;
38785;SDS011;24535;45.508;12.252;2023-04-06T00:11:25;25.90;;;17.48;;
38785;SDS011;24535;45.508;12.252;2023-04-06T00:13:51;21.50;;;17.35;;
38785;SDS011;24535;45.508;12.252;2023-04-06T00:16:17;24.92;;;17.77;;
38785;SDS011;24535;45.508;12.252;2023-04-06T00:18:43;23.10;;;16.02;;
38785;SDS011;24535;45.508;12.252;2023-04-06T00:21:11;24.65;;;17.90;;
38785;SDS011;24535;45.508;12.252;2023-04-06T00:23:40;21.23;;;17.45;;
38785;SDS011;24535;45.508;12.252;2023-04-06T00:26:07;19.17;;;15.98;;
38785;SDS011;24535;45.508;12.252;2023-04-06T00:28:33;22.52;;;16.98;;
38785;SDS011;24535;45.508;12.252;2023-04-06T00:30:59;19.60;;;16.85;;
38785;SDS011;24535;45.508;12.252;2023-04-06T00:33:24;21.73;;;16.55;;
38785;SDS011;24535;45.508;12.252;2023-04-06T00:35:50;26.23;;;18.65;;
38785;SDS011;24535;45.508;12.252;2023-04-06T00:38:16;21.88;;;17.35;;
38785;SDS011;24535;45.508;12.252;2023-04-06T00:40:41;27.05;;;19.20;;
38785;SDS011;24535;45.508;12.252;2023-04-06T00:43:09;24.42;;;17.77;;
38785;SDS011;24535;45.508;12.252;2023-04-06T00:45:39;24.70;;;18.23;;
38785;SDS011;24535;45.508;12.252;2023-04-06T00:48:06;20.88;;;16.23;;
38785;SDS011;24535;45.508;12.252;2023-04-06T00:50:32;22.48;;;16.35;;
38785;SDS011;24535;45.508;12.252;2023-04-06T00:52:58;22.15;;;16.80;;
38785;SDS011;24535;45.508;12.252;2023-04-06T00:55:24;21.45;;;16.58;;
38785;SDS011;24535;45.508;12.252;2023-04-06T00:57:49;19.95;;;16.20;;
38785;SDS011;24535;45.508;12.252;2023-04-06T01:00:15;23.40;;;17.25;;
38785;SDS011;24535;45.508;12.252;2023-04-06T01:02:42;20.02;;;16.52;;
38785;SDS011;24535;45.508;12.252;2023-04-06T01:05:07;22.60;;;18.17;;
38785;SDS011;24535;45.508;12.252;2023-04-06T01:07:33;22.80;;;17.63;;
38785;SDS011;24535;45.508;12.252;2023-04-06T01:09:59;21.00;;;17.27;;
38785;SDS011;24535;45.508;12.252;2023-04-06T01:12:24;23.73;;;18.08;;
38785;SDS011;24535;45.508;12.252;2023-04-06T01:14:50;23.27;;;16.92;;
38785;SDS011;24535;45.508;12.252;2023-04-06T01:17:15;23.42;;;16.77;;
38785;SDS011;24535;45.508;12.252;2023-04-06T01:19:41;23.50;;;15.88;;
38785;SDS011;24535;45.508;12.252;2023-04-06T01:22:07;21.70;;;15.52;;
38785;SDS011;24535;45.508;12.252;2023-04-06T01:24:32;20.13;;;15.98;;
38785;SDS011;24535;45.508;12.252;2023-04-06T01:26:58;20.17;;;15.65;;
38785;SDS011;24535;45.508;12.252;2023-04-06T01:29:24;19.67;;;16.58;;
38785;SDS011;24535;45.508;12.252;2023-04-06T01:31:49;17.27;;;14.82;;
38785;SDS011;24535;45.508;12.252;2023-04-06T01:34:15;18.92;;;14.93;;
38785;SDS011;24535;45.508;12.252;2023-04-06T01:36:41;19.92;;;15.15;;
38785;SDS011;24535;45.508;12.252;2023-04-06T01:39:06;20.13;;;15.13;;
38785;SDS011;24535;45.508;12.252;2023-04-06T01:41:32;20.67;;;14.45;;
38785;SDS011;24535;45.508;12.252;2023-04-06T01:43:58;17.80;;;14.38;;
38785;SDS011;24535;45.508;12.252;2023-04-06T01:46:23;18.50;;;14.00;;
38785;SDS011;24535;45.508;12.252;2023-04-06T01:48:49;16.88;;;14.52;;
38785;SDS011;24535;45.508;12.252;2023-04-06T01:51:15;20.00;;;14.55;;
38785;SDS011;24535;45.508;12.252;2023-04-06T01:53:40;17.27;;;14.70;;
38785;SDS011;24535;45.508;12.252;2023-04-06T01:56:06;19.38;;;14.50;;
38785;SDS011;24535;45.508;12.252;2023-04-06T01:58:31;16.20;;;13.55;;
38785;SDS011;24535;45.508;12.252;2023-04-06T02:00:57;17.77;;;13.70;;
38785;SDS011;24535;45.508;12.252;2023-04-06T02:03:22;18.27;;;13.90;;
38785;SDS011;24535;45.508;12.252;2023-04-06T02:05:48;20.65;;;13.32;;
38785;SDS011;24535;45.508;12.252;2023-04-06T02:08:13;16.60;;;13.00;;
38785;SDS011;24535;45.508;12.252;2023-04-06T02:10:39;19.52;;;14.15;;
38785;SDS011;24535;45.508;12.252;2023-04-06T02:13:04;19.42;;;12.15;;
38785;SDS011;24535;45.508;12.252;2023-04-06T02:15:30;17.67;;;13.02;;
38785;SDS011;24535;45.508;12.252;2023-04-06T02:17:56;15.38;;;12.40;;
38785;SDS011;24535;45.508;12.252;2023-04-06T02:20:22;18.17;;;12.68;;
38785;SDS011;24535;45.508;12.252;2023-04-06T02:22:48;15.90;;;11.95;;
38785;SDS011;24535;45.508;12.252;2023-04-06T02:25:13;14.52;;;12.07;;
38785;SDS011;24535;45.508;12.252;2023-04-06T02:27:39;17.63;;;11.15;;
38785;SDS011;24535;45.508;12.252;2023-04-06T02:30:05;15.13;;;11.55;;
38785;SDS011;24535;45.508;12.252;2023-04-06T02:32:31;17.55;;;11.18;;
38785;SDS011;24535;45.508;12.252;2023-04-06T02:34:57;15.02;;;11.45;;
38785;SDS011;24535;45.508;12.252;2023-04-06T02:37:22;13.05;;;11.52;;
38785;SDS011;24535;45.508;12.252;2023-04-06T02:39:57;17.23;;;11.45;;
38785;SDS011;24535;45.508;12.252;2023-04-06T02:42:22;15.38;;;11.88;;
38785;SDS011;24535;45.508;12.252;2023-04-06T02:44:47;16.10;;;12.07;;
38785;SDS011;24535;45.508;12.252;2023-04-06T02:47:13;18.48;;;12.63;;
38785;SDS011;24535;45.508;12.252;2023-04-06T02:49:38;14.68;;;12.55;;
38785;SDS011;24535;45.508;12.252;2023-04-06T02:52:04;17.67;;;13.07;;
38785;SDS011;24535;45.508;12.252;2023-04-06T02:54:29;16.45;;;13.48;;
38785;SDS011;24535;45.508;12.252;2023-04-06T02:56:55;16.35;;;13.32;;
38785;SDS011;24535;45.508;12.252;2023-04-06T02:59:20;17.25;;;13.90;;
38785;SDS011;24535;45.508;12.252;2023-04-06T03:01:46;20.88;;;12.82;;
38785;SDS011;24535;45.508;12.252;2023-04-06T03:04:11;14.73;;;12.60;;
38785;SDS011;24535;45.508;12.252;2023-04-06T03:06:37;17.25;;;13.65;;
38785;SDS011;24535;45.508;12.252;2023-04-06T03:09:02;25.85;;;13.88;;
38785;SDS011;24535;45.508;12.252;2023-04-06T03:11:28;18.33;;;14.10;;
38785;SDS011;24535;45.508;12.252;2023-04-06T03:13:53;17.90;;;12.68;;
38785;SDS011;24535;45.508;12.252;2023-04-06T03:16:19;18.55;;;13.48;;
38785;SDS011;24535;45.508;12.252;2023-04-06T03:18:48;21.30;;;13.38;;
38785;SDS011;24535;45.508;12.252;2023-04-06T03:21:13;21.73;;;14.10;;
38785;SDS011;24535;45.508;12.252;2023-04-06T03:23:42;21.63;;;13.15;;
38785;SDS011;24535;45.508;12.252;2023-04-06T03:26:08;15.30;;;12.00;;
38785;SDS011;24535;45.508;12.252;2023-04-06T03:28:33;20.48;;;13.60;;
38785;SDS011;24535;45.508;12.252;2023-04-06T03:30:59;18.88;;;13.25;;
38785;SDS011;24535;45.508;12.252;2023-04-06T03:33:25;17.08;;;13.10;;
38785;SDS011;24535;45.508;12.252;2023-04-06T03:35:53;16.33;;;12.57;;
38785;SDS011;24535;45.508;12.252;2023-04-06T03:38:19;16.20;;;12.85;;
38785;SDS011;24535;45.508;12.252;2023-04-06T03:40:44;14.68;;;12.50;;
38785;SDS011;24535;45.508;12.252;2023-04-06T03:46:03;15.95;;;12.40;;
38785;SDS011;24535;45.508;12.252;2023-04-06T03:48:28;15.50;;;12.20;;
38785;SDS011;24535;45.508;12.252;2023-04-06T03:50:54;13.57;;;11.70;;
38785;SDS011;24535;45.508;12.252;2023-04-06T03:53:20;16.50;;;12.55;;
38785;SDS011;24535;45.508;12.252;2023-04-06T03:55:45;18.30;;;11.77;;
38785;SDS011;24535;45.508;12.252;2023-04-06T03:58:12;21.98;;;12.85;;
38785;SDS011;24535;45.508;12.252;2023-04-06T04:00:37;15.63;;;12.48;;
38785;SDS011;24535;45.508;12.252;2023-04-06T04:03:03;13.23;;;11.30;;
38785;SDS011;24535;45.508;12.252;2023-04-06T04:05:28;15.98;;;12.25;;
38785;SDS011;24535;45.508;12.252;2023-04-06T04:07:54;13.45;;;11.13;;
38785;SDS011;24535;45.508;12.252;2023-04-06T04:10:20;14.88;;;11.98;;
38785;SDS011;24535;45.508;12.252;2023-04-06T04:13:00;17.55;;;11.88;;
38785;SDS011;24535;45.508;12.252;2023-04-06T04:15:38;15.60;;;11.65;;
38785;SDS011;24535;45.508;12.252;2023-04-06T04:18:03;15.52;;;11.27;;
38785;SDS011;24535;45.508;12.252;2023-04-06T04:20:28;16.15;;;11.70;;
38785;SDS011;24535;45.508;12.252;2023-04-06T04:22:54;14.57;;;11.55;;
38785;SDS011;24535;45.508;12.252;2023-04-06T04:25:19;14.90;;;10.50;;
38785;SDS011;24535;45.508;12.252;2023-04-06T04:27:45;20.27;;;12.52;;
38785;SDS011;24535;45.508;12.252;2023-04-06T04:30:10;15.93;;;12.07;;
38785;SDS011;24535;45.508;12.252;2023-04-06T04:32:36;15.80;;;11.73;;
38785;SDS011;24535;45.508;12.252;2023-04-06T04:35:01;17.73;;;11.18;;
38785;SDS011;24535;45.508;12.252;2023-04-06T04:37:27;15.90;;;12.00;;
38785;SDS011;24535;45.508;12.252;2023-04-06T04:39:53;13.00;;;10.63;;
38785;SDS011;24535;45.508;12.252;2023-04-06T04:42:24;16.42;;;11.10;;
38785;SDS011;24535;45.508;12.252;2023-04-06T04:44:53;19.48;;;11.25;;
38785;SDS011;24535;45.508;12.252;2023-04-06T04:47:25;14.10;;;11.15;;
38785;SDS011;24535;45.508;12.252;2023-04-06T04:49:50;14.55;;;11.00;;
38785;SDS011;24535;45.508;12.252;2023-04-06T04:52:16;15.93;;;11.40;;
38785;SDS011;24535;45.508;12.252;2023-04-06T04:54:41;12.70;;;10.65;;
38785;SDS011;24535;45.508;12.252;2023-04-06T04:57:07;16.50;;;11.70;;
38785;SDS011;24535;45.508;12.252;2023-04-06T04:59:33;15.15;;;10.32;;
38785;SDS011;24535;45.508;12.252;2023-04-06T05:01:59;15.32;;;10.80;;
38785;SDS011;24535;45.508;12.252;2023-04-06T05:04:25;15.63;;;11.30;;
38785;SDS011;24535;45.508;12.252;2023-04-06T05:07:01;18.17;;;10.77;;
38785;SDS011;24535;45.508;12.252;2023-04-06T05:09:30;15.02;;;11.63;;
38785;SDS011;24535;45.508;12.252;2023-04-06T05:11:56;21.73;;;15.10;;
38785;SDS011;24535;45.508;12.252;2023-04-06T05:14:22;13.07;;;10.80;;
38785;SDS011;24535;45.508;12.252;2023-04-06T05:16:48;18.40;;;9.95;;
38785;SDS011;24535;45.508;12.252;2023-04-06T05:19:13;12.65;;;9.75;;
38785;SDS011;24535;45.508;12.252;2023-04-06T05:21:39;15.93;;;9.63;;
38785;SDS011;24535;45.508;12.252;2023-04-06T05:24:08;18.95;;;10.55;;
38785;SDS011;24535;45.508;12.252;2023-04-06T05:26:33;12.18;;;10.02;;
38785;SDS011;24535;45.508;12.252;2023-04-06T05:28:59;17.23;;;10.48;;
38785;SDS011;24535;45.508;12.252;2023-04-06T05:31:24;13.07;;;9.02;;
38785;SDS011;24535;45.508;12.252;2023-04-06T05:33:50;10.85;;;9.05;;
38785;SDS011;24535;45.508;12.252;2023-04-06T05:36:15;13.52;;;9.52;;
38785;SDS011;24535;45.508;12.252;2023-04-06T05:38:41;10.68;;;8.60;;
38785;SDS011;24535;45.508;12.252;2023-04-06T05:41:06;15.82;;;9.60;;
38785;SDS011;24535;45.508;12.252;2023-04-06T05:43:32;16.50;;;10.30;;
38785;SDS011;24535;45.508;12.252;2023-04-06T05:45:57;10.68;;;8.13;;
38785;SDS011;24535;45.508;12.252;2023-04-06T05:48:23;13.43;;;9.48;;
38785;SDS011;24535;45.508;12.252;2023-04-06T05:50:49;13.63;;;8.65;;
38785;SDS011;24535;45.508;12.252;2023-04-06T05:55:43;12.25;;;9.20;;
38785;SDS011;24535;45.508;12.252;2023-04-06T05:58:09;11.07;;;7.70;;
38785;SDS011;24535;45.508;12.252;2023-04-06T06:00:35;15.05;;;8.40;;
38785;SDS011;24535;45.508;12.252;2023-04-06T06:03:00;11.48;;;8.25;;
38785;SDS011;24535;45.508;12.252;2023-04-06T06:05:29;14.25;;;7.93;;
38785;SDS011;24535;45.508;12.252;2023-04-06T06:07:54;12.02;;;7.38;;
38785;SDS011;24535;45.508;12.252;2023-04-06T06:10:20;13.70;;;7.65;;
38785;SDS011;24535;45.508;12.252;2023-04-06T06:12:45;12.57;;;8.10;;
38785;SDS011;24535;45.508;12.252;2023-04-06T06:15:11;11.65;;;7.35;;
38785;SDS011;24535;45.508;12.252;2023-04-06T06:17:36;12.68;;;7.43;;
38785;SDS011;24535;45.508;12.252;2023-04-06T06:20:04;14.05;;;7.60;;
38785;SDS011;24535;45.508;12.252;2023-04-06T06:22:33;14.63;;;7.82;;
38785;SDS011;24535;45.508;12.252;2023-04-06T06:25:01;10.95;;;7.18;;
38785;SDS011;24535;45.508;12.252;2023-04-06T06:27:27;7.82;;;6.00;;
38785;SDS011;24535;45.508;12.252;2023-04-06T06:29:53;13.00;;;7.47;;
38785;SDS011;24535;45.508;12.252;2023-04-06T06:32:18;12.48;;;6.72;;
38785;SDS011;24535;45.508;12.252;2023-04-06T06:34:44;9.93;;;6.63;;
38785;SDS011;24535;45.508;12.252;2023-04-06T06:37:09;10.10;;;6.53;;
38785;SDS011;24535;45.508;12.252;2023-04-06T06:39:35;11.20;;;6.38;;
38785;SDS011;24535;45.508;12.252;2023-04-06T06:42:00;10.35;;;6.18;;
38785;SDS011;24535;45.508;12.252;2023-04-06T06:44:31;9.27;;;5.43;;
38785;SDS011;24535;45.508;12.252;2023-04-06T06:46:57;9.00;;;6.22;;
38785;SDS011;24535;45.508;12.252;2023-04-06T06:49:25;11.48;;;6.60;;
38785;SDS011;24535;45.508;12.252;2023-04-06T06:51:51;9.60;;;4.63;;
38785;SDS011;24535;45.508;12.252;2023-04-06T06:54:16;9.50;;;5.40;;
38785;SDS011;24535;45.508;12.252;2023-04-06T06:56:42;6.00;;;4.80;;
38785;SDS011;24535;45.508;12.252;2023-04-06T06:59:10;9.45;;;5.80;;
38785;SDS011;24535;45.508;12.252;2023-04-06T07:01:42;9.93;;;6.40;;
38785;SDS011;24535;45.508;12.252;2023-04-06T07:04:07;7.97;;;5.15;;
38785;SDS011;24535;45.508;12.252;2023-04-06T07:06:35;14.30;;;5.65;;
38785;SDS011;24535;45.508;12.252;2023-04-06T07:09:01;7.03;;;4.55;;
38785;SDS011;24535;45.508;12.252;2023-04-06T07:11:47;8.10;;;4.70;;
38785;SDS011;24535;45.508;12.252;2023-04-06T07:14:14;9.88;;;4.78;;
38785;SDS011;24535;45.508;12.252;2023-04-06T07:16:40;9.73;;;5.65;;
38785;SDS011;24535;45.508;12.252;2023-04-06T07:19:06;10.65;;;4.63;;
38785;SDS011;24535;45.508;12.252;2023-04-06T07:21:31;5.13;;;4.55;;
38785;SDS011;24535;45.508;12.252;2023-04-06T07:23:57;8.57;;;6.18;;
38785;SDS011;24535;45.508;12.252;2023-04-06T07:26:22;13.65;;;5.47;;
38785;SDS011;24535;45.508;12.252;2023-04-06T07:28:50;8.48;;;4.65;;
38785;SDS011;24535;45.508;12.252;2023-04-06T07:31:16;9.23;;;4.90;;
38785;SDS011;24535;45.508;12.252;2023-04-06T07:33:41;10.07;;;5.65;;
38785;SDS011;24535;45.508;12.252;2023-04-06T07:36:07;6.47;;;4.28;;
38785;SDS011;24535;45.508;12.252;2023-04-06T07:38:32;7.88;;;5.03;;
38785;SDS011;24535;45.508;12.252;2023-04-06T07:40:58;8.38;;;4.90;;
38785;SDS011;24535;45.508;12.252;2023-04-06T07:43:23;9.32;;;5.05;;
38785;SDS011;24535;45.508;12.252;2023-04-06T07:45:49;6.30;;;5.00;;
38785;SDS011;24535;45.508;12.252;2023-04-06T07:48:15;7.20;;;5.03;;
38785;SDS011;24535;45.508;12.252;2023-04-06T07:50:40;8.77;;;4.63;;
38785;SDS011;24535;45.508;12.252;2023-04-06T07:53:06;8.73;;;4.60;;
38785;SDS011;24535;45.508;12.252;2023-04-06T07:55:33;6.30;;;4.13;;
38785;SDS011;24535;45.508;12.252;2023-04-06T07:57:59;10.15;;;5.20;;
38785;SDS011;24535;45.508;12.252;2023-04-06T08:00:25;7.38;;;4.68;;
38785;SDS011;24535;45.508;12.252;2023-04-06T08:02:50;10.82;;;4.88;;
38785;SDS011;24535;45.508;12.252;2023-04-06T08:05:16;9.15;;;4.90;;
38785;SDS011;24535;45.508;12.252;2023-04-06T08:07:42;8.77;;;4.72;;
38785;SDS011;24535;45.508;12.252;2023-04-06T08:10:08;7.05;;;4.25;;
38785;SDS011;24535;45.508;12.252;2023-04-06T08:12:34;6.93;;;4.30;;
38785;SDS011;24535;45.508;12.252;2023-04-06T08:15:00;6.47;;;4.30;;
38785;SDS011;24535;45.508;12.252;2023-04-06T08:17:25;8.95;;;4.32;;
38785;SDS011;24535;45.508;12.252;2023-04-06T08:19:55;4.90;;;3.42;;
38785;SDS011;24535;45.508;12.252;2023-04-06T08:22:20;6.40;;;4.03;;
38785;SDS011;24535;45.508;12.252;2023-04-06T08:24:46;8.35;;;4.25;;
38785;SDS011;24535;45.508;12.252;2023-04-06T08:27:12;7.30;;;3.88;;
38785;SDS011;24535;45.508;12.252;2023-04-06T08:29:39;10.63;;;4.45;;
38785;SDS011;24535;45.508;12.252;2023-04-06T08:32:05;4.07;;;3.28;;
38785;SDS011;24535;45.508;12.252;2023-04-06T08:34:33;5.60;;;3.25;;
38785;SDS011;24535;45.508;12.252;2023-04-06T08:36:59;6.03;;;3.30;;
38785;SDS011;24535;45.508;12.252;2023-04-06T08:39:25;5.45;;;2.95;;
38785;SDS011;24535;45.508;12.252;2023-04-06T08:41:52;4.13;;;2.95;;
38785;SDS011;24535;45.508;12.252;2023-04-06T08:44:21;3.83;;;2.72;;
38785;SDS011;24535;45.508;12.252;2023-04-06T08:46:47;4.88;;;3.03;;
38785;SDS011;24535;45.508;12.252;2023-04-06T08:49:13;12.45;;;3.13;;
38785;SDS011;24535;45.508;12.252;2023-04-06T08:51:40;5.18;;;3.08;;
38785;SDS011;24535;45.508;12.252;2023-04-06T08:54:07;5.75;;;3.85;;
38785;SDS011;24535;45.508;12.252;2023-04-06T08:56:36;7.40;;;3.28;;
38785;SDS011;24535;45.508;12.252;2023-04-06T08:59:03;4.82;;;3.10;;
38785;SDS011;24535;45.508;12.252;2023-04-06T09:01:30;5.05;;;3.20;;
38785;SDS011;24535;45.508;12.252;2023-04-06T09:03:58;4.80;;;3.67;;
38785;SDS011;24535;45.508;12.252;2023-04-06T09:06:30;5.47;;;3.47;;
38785;SDS011;24535;45.508;12.252;2023-04-06T09:08:56;5.65;;;3.05;;
38785;SDS011;24535;45.508;12.252;2023-04-06T09:11:23;4.05;;;2.40;;
38785;SDS011;24535;45.508;12.252;2023-04-06T09:13:52;6.47;;;3.60;;
38785;SDS011;24535;45.508;12.252;2023-04-06T09:16:19;3.17;;;1.90;;
38785;SDS011;24535;45.508;12.252;2023-04-06T09:18:46;5.45;;;3.15;;
38785;SDS011;24535;45.508;12.252;2023-04-06T09:21:12;5.95;;;3.53;;
38785;SDS011;24535;45.508;12.252;2023-04-06T09:23:38;7.38;;;3.35;;
38785;SDS011;24535;45.508;12.252;2023-04-06T09:26:07;4.93;;;2.78;;
38785;SDS011;24535;45.508;12.252;2023-04-06T09:28:46;5.05;;;3.08;;
38785;SDS011;24535;45.508;12.252;2023-04-06T09:31:28;5.15;;;2.65;;
38785;SDS011;24535;45.508;12.252;2023-04-06T09:33:57;4.95;;;2.78;;
38785;SDS011;24535;45.508;12.252;2023-04-06T09:36:29;4.80;;;3.55;;
38785;SDS011;24535;45.508;12.252;2023-04-06T09:38:59;6.70;;;2.58;;
38785;SDS011;24535;45.508;12.252;2023-04-06T09:41:27;4.22;;;2.83;;
38785;SDS011;24535;45.508;12.252;2023-04-06T09:46:33;7.22;;;3.08;;
38785;SDS011;24535;45.508;12.252;2023-04-06T09:49:03;4.47;;;2.70;;
38785;SDS011;24535;45.508;12.252;2023-04-06T09:53:56;8.13;;;2.70;;
38785;SDS011;24535;45.508;12.252;2023-04-06T09:56:28;5.65;;;3.63;;
38785;SDS011;24535;45.508;12.252;2023-04-06T09:58:57;4.72;;;3.58;;
38785;SDS011;24535;45.508;12.252;2023-04-06T10:01:28;8.07;;;3.50;;
38785;SDS011;24535;45.508;12.252;2023-04-06T10:06:30;6.80;;;3.15;;
38785;SDS011;24535;45.508;12.252;2023-04-06T10:08:58;9.65;;;4.40;;
38785;SDS011;24535;45.508;12.252;2023-04-06T10:11:25;5.00;;;2.95;;
38785;SDS011;24535;45.508;12.252;2023-04-06T10:13:51;5.97;;;2.80;;
38785;SDS011;24535;45.508;12.252;2023-04-06T10:16:16;4.57;;;2.67;;
38785;SDS011;24535;45.508;12.252;2023-04-06T10:18:44;6.50;;;3.20;;
38785;SDS011;24535;45.508;12.252;2023-04-06T10:21:15;4.13;;;2.83;;
38785;SDS011;24535;45.508;12.252;2023-04-06T10:23:48;6.55;;;3.55;;
38785;SDS011;24535;45.508;12.252;2023-04-06T10:26:16;4.53;;;2.78;;
38785;SDS011;24535;45.508;12.252;2023-04-06T10:28:46;7.88;;;3.35;;
38785;SDS011;24535;45.508;12.252;2023-04-06T10:31:13;4.30;;;2.83;;
38785;SDS011;24535;45.508;12.252;2023-04-06T10:33:38;4.05;;;2.88;;
38785;SDS011;24535;45.508;12.252;2023-04-06T10:36:21;4.32;;;2.65;;
38785;SDS011;24535;45.508;12.252;2023-04-06T10:38:53;4.47;;;3.08;;
38785;SDS011;24535;45.508;12.252;2023-04-06T10:41:35;4.90;;;2.78;;
38785;SDS011;24535;45.508;12.252;2023-04-06T10:44:05;5.43;;;2.90;;
38785;SDS011;24535;45.508;12.252;2023-04-06T10:46:32;4.22;;;3.15;;
38785;SDS011;24535;45.508;12.252;2023-04-06T10:49:09;8.05;;;4.05;;
38785;SDS011;24535;45.508;12.252;2023-04-06T10:51:37;6.03;;;3.63;;
38785;SDS011;24535;45.508;12.252;2023-04-06T10:54:03;8.27;;;4.07;;
38785;SDS011;24535;45.508;12.252;2023-04-06T10:56:31;7.43;;;4.88;;
38785;SDS011;24535;45.508;12.252;2023-04-06T10:59:03;8.38;;;4.93;;
38785;SDS011;24535;45.508;12.252;2023-04-06T11:01:28;10.80;;;4.90;;
38785;SDS011;24535;45.508;12.252;2023-04-06T11:03:54;6.50;;;4.13;;
38785;SDS011;24535;45.508;12.252;2023-04-06T11:06:24;9.40;;;4.78;;
38785;SDS011;24535;45.508;12.252;2023-04-06T11:08:52;5.47;;;3.58;;
38785;SDS011;24535;45.508;12.252;2023-04-06T11:11:19;8.75;;;4.78;;
38785;SDS011;24535;45.508;12.252;2023-04-06T11:13:48;6.57;;;4.75;;
38785;SDS011;24535;45.508;12.252;2023-04-06T11:16:31;8.20;;;4.15;;
38785;SDS011;24535;45.508;12.252;2023-04-06T11:19:04;7.45;;;4.15;;
38785;SDS011;24535;45.508;12.252;2023-04-06T11:21:40;7.55;;;4.65;;
38785;SDS011;24535;45.508;12.252;2023-04-06T11:26:49;7.55;;;4.18;;
38785;SDS011;24535;45.508;12.252;2023-04-06T11:29:17;6.35;;;3.95;;
38785;SDS011;24535;45.508;12.252;2023-04-06T11:34:17;6.57;;;3.88;;
38785;SDS011;24535;45.508;12.252;2023-04-06T11:36:45;9.43;;;5.45;;
38785;SDS011;24535;45.508;12.252;2023-04-06T11:39:12;5.55;;;4.25;;
38785;SDS011;24535;45.508;12.252;2023-04-06T11:41:38;8.30;;;3.83;;
38785;SDS011;24535;45.508;12.252;2023-04-06T11:44:05;8.10;;;5.03;;
38785;SDS011;24535;45.508;12.252;2023-04-06T11:46:30;7.88;;;4.65;;
38785;SDS011;24535;45.508;12.252;2023-04-06T11:49:00;7.43;;;4.72;;
38785;SDS011;24535;45.508;12.252;2023-04-06T11:51:27;7.47;;;4.63;;
38785;SDS011;24535;45.508;12.252;2023-04-06T11:53:53;6.70;;;4.45;;
38785;SDS011;24535;45.508;12.252;2023-04-06T11:56:23;5.85;;;4.45;;
38785;SDS011;24535;45.508;12.252;2023-04-06T11:58:53;7.63;;;4.30;;
38785;SDS011;24535;45.508;12.252;2023-04-06T12:01:20;8.05;;;4.55;;
38785;SDS011;24535;45.508;12.252;2023-04-06T12:03:45;5.80;;;4.07;;
38785;SDS011;24535;45.508;12.252;2023-04-06T12:06:11;11.23;;;4.95;;
38785;SDS011;24535;45.508;12.252;2023-04-06T12:08:37;6.75;;;5.00;;
38785;SDS011;24535;45.508;12.252;2023-04-06T12:11:22;5.25;;;4.07;;
38785;SDS011;24535;45.508;12.252;2023-04-06T12:13:48;6.05;;;4.38;;
38785;SDS011;24535;45.508;12.252;2023-04-06T12:16:14;5.70;;;4.05;;
38785;SDS011;24535;45.508;12.252;2023-04-06T12:18:39;9.98;;;4.97;;
38785;SDS011;24535;45.508;12.252;2023-04-06T12:21:05;9.77;;;4.75;;
38785;SDS011;24535;45.508;12.252;2023-04-06T12:23:30;9.38;;;4.40;;
38785;SDS011;24535;45.508;12.252;2023-04-06T12:25:56;8.93;;;4.40;;
38785;SDS011;24535;45.508;12.252;2023-04-06T12:28:21;8.98;;;4.22;;
38785;SDS011;24535;45.508;12.252;2023-04-06T12:30:50;6.57;;;4.82;;
38785;SDS011;24535;45.508;12.252;2023-04-06T12:33:16;8.38;;;5.05;;
38785;SDS011;24535;45.508;12.252;2023-04-06T12:35:41;9.68;;;5.45;;
38785;SDS011;24535;45.508;12.252;2023-04-06T12:38:07;10.55;;;5.53;;
38785;SDS011;24535;45.508;12.252;2023-04-06T12:40:36;7.28;;;4.78;;
38785;SDS011;24535;45.508;12.252;2023-04-06T12:43:02;7.07;;;4.50;;
38785;SDS011;24535;45.508;12.252;2023-04-06T12:45:27;7.55;;;4.05;;
38785;SDS011;24535;45.508;12.252;2023-04-06T12:47:53;8.30;;;5.13;;
38785;SDS011;24535;45.508;12.252;2023-04-06T12:50:19;5.28;;;3.55;;
38785;SDS011;24535;45.508;12.252;2023-04-06T12:52:45;10.25;;;5.63;;
38785;SDS011;24535;45.508;12.252;2023-04-06T12:55:12;12.45;;;5.38;;
38785;SDS011;24535;45.508;12.252;2023-04-06T12:57:37;8.23;;;4.88;;
38785;SDS011;24535;45.508;12.252;2023-04-06T13:00:03;5.82;;;4.13;;
38785;SDS011;24535;45.508;12.252;2023-04-06T13:02:30;6.97;;;4.53;;
38785;SDS011;24535;45.508;12.252;2023-04-06T13:04:56;9.57;;;5.78;;
38785;SDS011;24535;45.508;12.252;2023-04-06T13:07:21;9.57;;;5.75;;
38785;SDS011;24535;45.508;12.252;2023-04-06T13:09:47;7.03;;;4.20;;
38785;SDS011;24535;45.508;12.252;2023-04-06T13:12:15;6.40;;;3.97;;
38785;SDS011;24535;45.508;12.252;2023-04-06T13:14:40;8.32;;;4.78;;
38785;SDS011;24535;45.508;12.252;2023-04-06T13:17:08;10.43;;;4.93;;
38785;SDS011;24535;45.508;12.252;2023-04-06T13:19:34;7.70;;;5.00;;
38785;SDS011;24535;45.508;12.252;2023-04-06T13:22:01;11.82;;;5.85;;
38785;SDS011;24535;45.508;12.252;2023-04-06T13:24:26;8.82;;;5.53;;
38785;SDS011;24535;45.508;12.252;2023-04-06T13:26:55;10.82;;;5.30;;
38785;SDS011;24535;45.508;12.252;2023-04-06T13:29:25;12.10;;;5.25;;
38785;SDS011;24535;45.508;12.252;2023-04-06T13:31:51;8.27;;;5.05;;
38785;SDS011;24535;45.508;12.252;2023-04-06T13:34:16;6.85;;;5.07;;
38785;SDS011;24535;45.508;12.252;2023-04-06T13:36:42;14.02;;;6.72;;
38785;SDS011;24535;45.508;12.252;2023-04-06T13:39:08;12.05;;;6.03;;
38785;SDS011;24535;45.508;12.252;2023-04-06T13:41:33;7.38;;;5.25;;
38785;SDS011;24535;45.508;12.252;2023-04-06T13:43:59;10.45;;;6.05;;
38785;SDS011;24535;45.508;12.252;2023-04-06T13:46:24;10.23;;;6.22;;
38785;SDS011;24535;45.508;12.252;2023-04-06T13:48:52;12.55;;;6.28;;
38785;SDS011;24535;45.508;12.252;2023-04-06T13:51:18;13.88;;;6.40;;
38785;SDS011;24535;45.508;12.252;2023-04-06T13:53:43;10.15;;;6.47;;
38785;SDS011;24535;45.508;12.252;2023-04-06T13:56:09;10.88;;;6.35;;
38785;SDS011;24535;45.508;12.252;2023-04-06T13:58:35;10.68;;;6.88;;
38785;SDS011;24535;45.508;12.252;2023-04-06T14:01:10;11.23;;;6.55;;
38785;SDS011;24535;45.508;12.252;2023-04-06T14:03:35;8.88;;;6.60;;
38785;SDS011;24535;45.508;12.252;2023-04-06T14:06:08;11.70;;;7.55;;
38785;SDS011;24535;45.508;12.252;2023-04-06T14:08:35;12.63;;;6.85;;
38785;SDS011;24535;45.508;12.252;2023-04-06T14:11:00;11.15;;;7.15;;
38785;SDS011;24535;45.508;12.252;2023-04-06T14:13:26;10.65;;;6.68;;
38785;SDS011;24535;45.508;12.252;2023-04-06T14:15:55;9.65;;;6.97;;
38785;SDS011;24535;45.508;12.252;2023-04-06T14:18:22;10.18;;;7.07;;
38785;SDS011;24535;45.508;12.252;2023-04-06T14:20:54;9.35;;;6.18;;
38785;SDS011;24535;45.508;12.252;2023-04-06T14:23:20;10.98;;;6.97;;
38785;SDS011;24535;45.508;12.252;2023-04-06T14:25:46;10.68;;;5.78;;
38785;SDS011;24535;45.508;12.252;2023-04-06T14:28:12;8.45;;;6.85;;
38785;SDS011;24535;45.508;12.252;2023-04-06T14:30:37;8.02;;;6.03;;
38785;SDS011;24535;45.508;12.252;2023-04-06T14:33:03;8.98;;;6.43;;
38785;SDS011;24535;45.508;12.252;2023-04-06T14:35:29;8.68;;;6.22;;
38785;SDS011;24535;45.508;12.252;2023-04-06T14:37:57;12.48;;;6.15;;
38785;SDS011;24535;45.508;12.252;2023-04-06T14:40:23;8.23;;;6.20;;